Kezdőlap
METAR-TAF:

METAR-TAF

Repülőterek :

Denison Municipal Airport

Denison, Iowa, Amerikai Egyesült Államok

földrajzi szélesség: 41-59N, földrajzi hosszúság: 095-23W, magasság: 388 m

Jelenlegi meteorológiai megfigyelések

A jelentés 16 perccel ezelõtt készült, 12:15 UTC
Kelet-északkeleti szél 5 kt
Hőmérséklet -13°C
Páratartalom 92%
Légköri nyomás 1019 hPa
Látótávolság: 16.1 km
Borult 9000 lábon

METAR: KDNS 151215Z AUTO 06005KT 10SM OVC090 M13/M14 A3008 RMK AO2

Idő: 06:31 (12:31 UTC)


TAF: hiányzik

Meteorológiai megfigyelések és előrejelzések több, mint 4000 repülőtéren (METAR és TAF jelentéseket).

A térképen piros és sárga pontok jelzik az elérhető meteorológiai állomásokat.

Mozgassa az egeret a pont fölött, hogy megjelenjen az állomás neve.

Azután kattintson az időjárási megfigyelések és előrejelzések megtekintéséhez.

A térkép megváltoztatása: kattintson a fekete keresztel jelölt zöld gombra ráközelítéshez, a vonallal jelölt zöld gombra távolításhoz, vagy a zöld nyilakra a szomszédos térképek eléréséhez.


METAR-TAF: